Time;durP1;ratioP1;P1;durP2;ratioP2;P2;SDS_P1;SDS_P2;PMS_P1;PMS_P2;Temp;Humidity;BMP_temperature;BMP_pressure;BME280_temperature;BME280_humidity;BME280_pressure;Samples;Min_cycle;Max_cycle;Signal;HPM_P1;HPM_P2
2023/03/09 00:01:29;;;;;;;1999.90;999.90;;;4.00;99.90;;;;;;4994237;28;20049;-87
2023/03/09 00:03:55;;;;;;;1999.90;999.90;;;5.20;99.90;;;;;;4993516;28;20054;-88
2023/03/09 00:06:21;;;;;;;1999.90;999.90;;;4.20;99.90;;;;;;4993168;28;20046;-87
2023/03/09 00:08:48;;;;;;;1999.90;999.90;;;2.70;99.90;;;;;;4993852;28;20042;-87
2023/03/09 00:11:15;;;;;;;1999.90;999.90;;;3.80;99.90;;;;;;4993319;28;20061;-87
2023/03/09 00:13:40;;;;;;;1999.90;999.90;;;5.20;99.90;;;;;;4993731;28;20050;-87
2023/03/09 00:16:11;;;;;;;1999.90;999.90;;;5.30;99.90;;;;;;4993650;28;20054;-87
2023/03/09 00:18:37;;;;;;;1999.90;999.90;;;3.10;99.90;;;;;;4993590;28;20085;-87
2023/03/09 00:21:04;;;;;;;1999.90;999.90;;;5.50;99.90;;;;;;4990291;28;20454;-86
2023/03/09 00:23:30;;;;;;;1999.90;999.90;;;;;;;;;;4994620;28;20777;-87
2023/03/09 00:25:56;;;;;;;1999.90;999.90;;;;;;;;;;4994670;28;20125;-87
2023/03/09 00:28:22;;;;;;;1999.90;999.90;;;;;;;;;;4994720;28;20050;-87
2023/03/09 00:30:48;;;;;;;1999.90;999.90;;;3.80;99.90;;;;;;4974937;28;20046;-85
2023/03/09 00:33:13;;;;;;;1999.90;999.90;;;4.80;99.90;;;;;;4992275;28;20133;-86
2023/03/09 00:35:39;;;;;;;1999.90;999.90;;;4.00;99.90;;;;;;4993253;28;20549;-86
2023/03/09 00:38:05;;;;;;;1999.90;999.90;;;3.30;99.90;;;;;;4994036;28;20139;-87
2023/03/09 00:40:30;;;;;;;1709.47;611.00;;;3.10;99.90;;;;;;4991697;28;20077;-87
2023/03/09 00:42:56;;;;;;;1999.90;999.90;;;5.80;99.90;;;;;;4990193;28;20049;-88
2023/03/09 00:45:23;;;;;;;1999.90;999.90;;;6.40;99.90;;;;;;4993385;28;20141;-87
2023/03/09 00:47:49;;;;;;;1999.90;999.90;;;;;;;;;;4992967;28;20089;-87
2023/03/09 00:50:15;;;;;;;1999.90;999.90;;;3.60;99.90;;;;;;4992955;28;20077;-87
2023/03/09 00:52:41;;;;;;;1999.90;999.90;;;;;;;;;;4992573;28;20483;-87
2023/03/09 00:55:07;;;;;;;1999.90;999.90;;;;;;;;;;4976445;28;20054;-87
2023/03/09 00:57:34;;;;;;;1999.90;999.90;;;;;;;;;;4993018;28;20080;-88
2023/03/09 01:00:00;;;;;;;1999.90;999.90;;;3.90;99.90;;;;;;4993278;28;20156;-87
2023/03/09 01:02:27;;;;;;;1999.90;999.90;;;;;;;;;;4994527;28;20056;-87
2023/03/09 01:04:52;;;;;;;1999.90;999.90;;;3.70;99.90;;;;;;4993286;28;20407;-88
2023/03/09 01:07:18;;;;;;;1999.90;999.90;;;3.60;99.90;;;;;;4994557;28;20050;-88
2023/03/09 01:09:44;;;;;;;1999.90;999.90;;;3.80;99.90;;;;;;4992120;28;20046;-88
2023/03/09 01:12:10;;;;;;;1999.90;999.90;;;2.90;99.90;;;;;;4991526;28;20046;-88
2023/03/09 01:14:36;;;;;;;1999.90;999.90;;;3.50;99.90;;;;;;4977053;28;20137;-87
2023/03/09 01:17:01;;;;;;;1999.90;728.53;;;3.50;99.90;;;;;;4994424;28;20121;-88
2023/03/09 01:19:27;;;;;;;1999.90;999.90;;;3.80;99.90;;;;;;4992439;28;20085;-87
2023/03/09 01:21:54;;;;;;;1999.90;999.90;;;;;;;;;;4993849;28;20096;-87
2023/03/09 01:24:20;;;;;;;1999.90;999.90;;;2.20;99.90;;;;;;4994569;28;20077;-87
2023/03/09 01:26:46;;;;;;;1999.90;999.90;;;;;;;;;;4995125;28;20073;-88
2023/03/09 01:29:11;;;;;;;1999.90;999.90;;;2.90;99.90;;;;;;4973741;28;20038;-87
2023/03/09 01:31:37;;;;;;;1999.90;999.90;;;4.80;99.90;;;;;;4993416;28;20053;-87
2023/03/09 01:34:03;;;;;;;1999.90;999.90;;;2.70;99.90;;;;;;4986347;28;20062;-87
2023/03/09 01:36:28;;;;;;;1999.90;999.90;;;3.40;99.90;;;;;;4974389;28;20584;-87
2023/03/09 01:38:55;;;;;;;1999.90;999.90;;;;;;;;;;4983329;28;20050;-87
2023/03/09 01:41:22;;;;;;;1999.90;999.90;;;3.50;99.90;;;;;;4989514;28;20092;-87
2023/03/09 01:43:50;;;;;;;1999.90;999.90;;;3.60;99.90;;;;;;4995186;28;20065;-87
2023/03/09 01:46:22;;;;;;;1999.90;999.90;;;3.40;99.90;;;;;;4992860;28;20038;-87
2023/03/09 01:48:52;;;;;;;1999.90;999.90;;;2.40;99.90;;;;;;4980070;28;20047;-87
2023/03/09 01:51:23;;;;;;;1999.90;999.90;;;2.50;99.90;;;;;;4990145;28;20052;-87
2023/03/09 01:53:51;;;;;;;1999.90;999.90;;;2.30;99.90;;;;;;4990832;28;20380;-87
2023/03/09 01:56:19;;;;;;;1999.90;999.90;;;6.10;99.90;;;;;;4975985;28;20505;-87
2023/03/09 01:58:46;;;;;;;1999.90;999.90;;;2.80;99.90;;;;;;4978347;28;20047;-87
2023/03/09 02:01:12;;;;;;;1999.90;999.90;;;3.90;99.90;;;;;;4986927;28;20395;-87
2023/03/09 02:03:42;;;;;;;1999.90;999.90;;;3.60;99.90;;;;;;4984343;28;20054;-87
2023/03/09 02:06:14;;;;;;;1999.90;999.90;;;4.60;99.90;;;;;;4987850;28;20081;-87
2023/03/09 02:08:48;;;;;;;1877.13;817.53;;;5.50;99.90;;;;;;4986177;28;20038;-87
2023/03/09 02:11:14;;;;;;;1999.90;999.90;;;3.40;99.90;;;;;;4988423;28;20057;-88
2023/03/09 02:13:47;;;;;;;1999.90;999.90;;;3.00;99.90;;;;;;4989373;28;20074;-87
2023/03/09 02:16:13;;;;;;;1999.90;999.90;;;4.50;99.90;;;;;;4985024;28;20491;-87
2023/03/09 02:18:39;;;;;;;1999.90;999.90;;;2.90;99.90;;;;;;4971726;28;20101;-88
2023/03/09 02:21:17;;;;;;;1999.90;999.90;;;4.60;99.90;;;;;;4990050;28;20061;-86
2023/03/09 02:24:14;;;;;;;1999.90;999.90;;;4.40;99.90;;;;;;4985183;28;20046;-87
2023/03/09 02:26:52;;;;;;;1999.90;999.90;;;4.10;99.90;;;;;;4992105;28;20046;-87
2023/03/09 02:29:17;;;;;;;1999.90;999.90;;;2.10;99.90;;;;;;4984898;28;20049;-87
2023/03/09 02:31:44;;;;;;;1999.90;999.90;;;;;;;;;;4990446;28;20042;-88
2023/03/09 02:34:10;;;;;;;1999.90;999.90;;;;;;;;;;4990436;28;20046;-87
2023/03/09 02:36:36;;;;;;;1999.90;783.53;;;;;;;;;;4990347;28;20479;-87
2023/03/09 02:39:20;;;;;;;1999.90;999.90;;;3.60;99.90;;;;;;4991415;28;20076;-88
2023/03/09 02:41:47;;;;;;;1999.90;999.90;;;;;;;;;;4991085;28;20038;-87
2023/03/09 02:44:13;;;;;;;1999.90;999.90;;;;;;;;;;4991483;28;20084;-87
2023/03/09 02:46:39;;;;;;;1999.90;999.90;;;;;;;;;;4988622;28;20046;-87
2023/03/09 02:49:05;;;;;;;1999.90;999.90;;;4.00;99.90;;;;;;4992124;28;20057;-86
2023/03/09 02:51:31;;;;;;;1999.90;999.90;;;;;;;;;;4988258;28;20050;-87
2023/03/09 02:53:57;;;;;;;1999.90;999.90;;;;;;;;;;4988954;28;20101;-88
2023/03/09 02:56:23;;;;;;;1999.90;999.90;;;2.60;99.90;;;;;;4989953;28;20054;-87
2023/03/09 02:58:49;;;;;;;1999.90;999.90;;;4.50;99.90;;;;;;4993024;28;20046;-89
2023/03/09 03:01:14;;;;;;;1999.90;999.90;;;4.20;99.90;;;;;;4987383;28;20050;-86
2023/03/09 03:03:40;;;;;;;1999.90;999.90;;;2.90;99.90;;;;;;4989359;28;20495;-87
2023/03/09 03:06:06;;;;;;;1999.90;999.90;;;3.90;99.90;;;;;;4988429;28;20054;-87
2023/03/09 03:08:32;;;;;;;1999.90;999.90;;;4.10;1.00;;;;;;4984858;28;20050;-85
2023/03/09 03:10:58;;;;;;;1999.90;999.90;;;3.10;1.00;;;;;;4985537;28;20057;-86
2023/03/09 03:13:23;;;;;;;1999.90;999.90;;;1.20;99.90;;;;;;4987093;28;20173;-85
2023/03/09 03:15:49;;;;;;;1999.90;999.90;;;4.10;99.90;;;;;;4987857;28;20086;-86
2023/03/09 03:18:15;;;;;;;1999.90;999.90;;;3.40;99.90;;;;;;4987225;28;20050;-85
2023/03/09 03:20:40;;;;;;;1999.90;999.90;;;5.00;1.00;;;;;;4990225;28;20078;-85
2023/03/09 03:23:06;;;;;;;1999.90;999.90;;;;;;;;;;4989623;28;20495;-87
2023/03/09 03:25:34;;;;;;;1999.90;999.90;;;4.00;1.00;;;;;;4985511;28;20104;-85
2023/03/09 03:28:00;;;;;;;1999.90;999.90;;;3.20;99.90;;;;;;4988131;28;20104;-85
2023/03/09 03:30:26;;;;;;;1999.90;999.90;;;3.00;99.90;;;;;;4988701;28;20129;-85
2023/03/09 03:32:53;;;;;;;1999.90;999.90;;;4.60;1.00;;;;;;4986661;28;20047;-85
2023/03/09 03:35:19;;;;;;;1944.65;820.33;;;3.20;99.90;;;;;;4985844;28;20042;-85
2023/03/09 03:37:45;;;;;;;1999.90;999.90;;;;;;;;;;4989184;28;20039;-86
2023/03/09 03:40:12;;;;;;;1999.90;999.90;;;7.00;1.00;;;;;;4984778;28;20136;-85
2023/03/09 03:42:37;;;;;;;1999.90;999.90;;;2.60;99.90;;;;;;4986928;28;20066;-86
2023/03/09 03:45:04;;;;;;;1999.90;999.90;;;2.40;1.00;;;;;;4987678;28;20144;-87
2023/03/09 03:47:30;;;;;;;1999.90;999.90;;;;;;;;;;4983346;28;20404;-86
2023/03/09 03:49:56;;;;;;;1999.90;843.08;;;;;;;;;;4982572;28;20517;-86
2023/03/09 03:52:23;;;;;;;1999.90;999.90;;;4.90;99.90;;;;;;4984996;28;20045;-87
2023/03/09 03:54:49;;;;;;;1999.90;999.90;;;5.30;99.90;;;;;;4989313;28;20046;-87
2023/03/09 03:57:15;;;;;;;1999.90;999.90;;;2.10;1.00;;;;;;4988051;28;20065;-87
2023/03/09 03:59:41;;;;;;;1999.90;999.90;;;2.20;1.00;;;;;;4988499;28;20042;-87
2023/03/09 04:02:06;;;;;;;1999.90;999.90;;;5.10;99.90;;;;;;4992708;28;20034;-86
2023/03/09 04:04:32;;;;;;;1999.90;999.90;;;2.80;1.00;;;;;;4991758;28;20101;-87
2023/03/09 04:06:58;;;;;;;1999.90;788.72;;;4.70;1.00;;;;;;4992611;28;20042;-88
2023/03/09 04:09:23;;;;;;;1999.90;999.90;;;2.10;1.00;;;;;;4992932;28;20052;-86
2023/03/09 04:11:50;;;;;;;1999.90;999.90;;;3.00;1.00;;;;;;4959517;28;20923;-85
2023/03/09 04:14:15;;;;;;;1999.90;999.90;;;2.50;1.00;;;;;;4994741;28;20038;-86
2023/03/09 04:16:41;;;;;;;1999.90;999.90;;;3.10;1.00;;;;;;4995075;28;20105;-87
2023/03/09 04:19:07;;;;;;;1999.90;999.90;;;5.40;99.90;;;;;;4994470;28;20050;-86
2023/03/09 04:21:32;;;;;;;1999.90;999.90;;;4.50;1.00;;;;;;4994334;28;20041;-87
2023/03/09 04:23:58;;;;;;;1999.90;999.90;;;3.20;99.90;;;;;;4993336;28;20050;-87
2023/03/09 04:26:24;;;;;;;1999.90;999.90;;;3.40;1.00;;;;;;4994852;28;20042;-87
2023/03/09 04:28:49;;;;;;;1999.90;999.90;;;1.90;1.00;;;;;;4993977;28;20158;-87
2023/03/09 04:31:15;;;;;;;1999.90;999.90;;;4.70;99.90;;;;;;4994414;28;20077;-88
2023/03/09 04:33:42;;;;;;;1999.90;999.90;;;2.40;1.00;;;;;;4992387;28;20057;-88
2023/03/09 04:36:09;;;;;;;1999.90;999.90;;;4.50;99.90;;;;;;4995568;28;20046;-87
2023/03/09 04:38:35;;;;;;;1999.90;999.90;;;4.20;1.00;;;;;;4987138;28;20080;-87
2023/03/09 04:41:01;;;;;;;1999.90;999.90;;;4.40;99.90;;;;;;4994675;28;20077;-88
2023/03/09 04:43:27;;;;;;;1999.90;999.90;;;3.10;1.00;;;;;;4994264;28;20049;-87
2023/03/09 04:45:53;;;;;;;1999.90;999.90;;;;;;;;;;4977005;28;20161;-88
2023/03/09 04:48:19;;;;;;;1999.90;999.90;;;;;;;;;;4991196;28;20047;-86
2023/03/09 04:50:45;;;;;;;1999.90;999.90;;;2.80;99.90;;;;;;4975796;28;20499;-87
2023/03/09 04:53:10;;;;;;;1999.90;999.90;;;2.80;99.90;;;;;;4994326;28;20185;-87
2023/03/09 04:55:37;;;;;;;1999.90;999.90;;;2.30;1.00;;;;;;4988052;28;20176;-87
2023/03/09 04:58:04;;;;;;;1999.90;999.90;;;3.60;1.00;;;;;;4977018;28;20629;-87
2023/03/09 05:00:32;;;;;;;1999.90;999.90;;;2.60;1.00;;;;;;4989158;28;20050;-88
2023/03/09 05:02:58;;;;;;;1999.90;999.90;;;5.30;99.90;;;;;;4993780;28;20046;-87
2023/03/09 05:05:24;;;;;;;1999.90;999.90;;;;;;;;;;4987789;28;20097;-87
2023/03/09 05:07:50;;;;;;;1999.90;999.90;;;2.80;99.90;;;;;;4991828;28;20054;-88
2023/03/09 05:10:16;;;;;;;1999.90;999.90;;;2.90;1.00;;;;;;4989194;28;20101;-87
2023/03/09 05:12:42;;;;;;;1999.90;999.90;;;2.70;1.00;;;;;;4992258;28;20582;-88
2023/03/09 05:15:08;;;;;;;1999.90;999.90;;;4.70;1.00;;;;;;4994987;28;20126;-88
2023/03/09 05:17:34;;;;;;;1999.90;999.90;;;2.60;1.00;;;;;;4988094;28;20402;-87
2023/03/09 05:20:00;;;;;;;1999.90;999.90;;;5.50;1.00;;;;;;4988845;28;20137;-87
2023/03/09 05:22:26;;;;;;;1999.90;999.90;;;3.40;1.00;;;;;;4988648;28;20150;-86
2023/03/09 05:24:52;;;;;;;1999.90;999.90;;;;;;;;;;4989032;28;20165;-85
2023/03/09 05:27:18;;;;;;;1999.90;999.90;;;3.20;1.00;;;;;;4992136;28;20495;-86
2023/03/09 05:29:43;;;;;;;1999.90;999.90;;;3.50;1.00;;;;;;4987719;28;20058;-86
2023/03/09 05:32:09;;;;;;;1999.90;999.90;;;5.00;1.00;;;;;;4991660;28;20391;-83
2023/03/09 05:34:35;;;;;;;1999.90;999.90;;;;;;;;;;4990462;28;20149;-83
2023/03/09 05:37:01;;;;;;;1999.90;999.90;;;2.70;1.00;;;;;;4985848;28;20053;-83
2023/03/09 05:39:27;;;;;;;1999.90;999.90;;;2.10;1.00;;;;;;4993624;28;20038;-84
2023/03/09 05:41:53;;;;;;;1999.90;999.90;;;;;;;;;;4992349;28;20458;-83
2023/03/09 05:44:19;;;;;;;1999.90;999.90;;;2.70;1.00;;;;;;4990697;28;20438;-84
2023/03/09 05:46:45;;;;;;;1999.90;999.90;;;3.10;1.00;;;;;;4991297;28;20050;-84
2023/03/09 05:49:11;;;;;;;1999.90;999.90;;;2.30;1.00;;;;;;4996509;28;20096;-84
2023/03/09 05:51:37;;;;;;;1999.90;999.90;;;3.00;1.00;;;;;;4984592;28;20043;-84
2023/03/09 05:54:03;;;;;;;1999.90;999.90;;;3.80;1.00;;;;;;4993961;28;20136;-83
2023/03/09 05:56:28;;;;;;;1999.90;999.90;;;3.00;1.00;;;;;;4994474;28;20109;-84
2023/03/09 05:58:56;;;;;;;1999.90;999.90;;;5.40;1.00;;;;;;4990151;28;20053;-84
2023/03/09 06:01:25;;;;;;;1999.90;999.90;;;3.40;1.00;;;;;;4984764;28;20065;-84
2023/03/09 06:03:51;;;;;;;1999.90;999.90;;;;;;;;;;4963809;28;20315;-83
2023/03/09 06:06:17;;;;;;;1999.90;999.90;;;3.30;1.00;;;;;;4985906;28;20053;-84
2023/03/09 06:08:43;;;;;;;1999.90;999.90;;;4.40;1.00;;;;;;4987343;28;20050;-83
2023/03/09 06:11:09;;;;;;;1999.90;999.90;;;4.20;1.00;;;;;;4986310;28;20046;-83
2023/03/09 06:13:35;;;;;;;1999.90;999.90;;;2.20;1.00;;;;;;4971443;28;20108;-83
2023/03/09 06:16:06;;;;;;;1999.90;999.90;;;6.60;1.00;;;;;;4988858;28;20050;-84
2023/03/09 06:18:31;;;;;;;1999.90;999.90;;;1.60;1.00;;;;;;4989111;28;20097;-84
2023/03/09 06:21:05;;;;;;;1999.90;999.90;;;2.80;1.00;;;;;;4985279;28;20544;-83
2023/03/09 06:23:32;;;;;;;1999.90;999.90;;;3.30;1.00;;;;;;4988884;28;20042;-83
2023/03/09 06:25:58;;;;;;;1999.90;999.90;;;5.40;1.00;;;;;;4981659;28;20046;-84
2023/03/09 06:28:24;;;;;;;1999.90;999.90;;;3.00;1.00;;;;;;4988553;28;20051;-83
2023/03/09 06:30:51;;;;;;;1999.90;999.90;;;;;;;;;;4989942;28;20042;-83
2023/03/09 06:33:17;;;;;;;1999.90;999.90;;;3.50;1.00;;;;;;4989189;28;20034;-83
2023/03/09 06:35:42;;;;;;;1999.90;999.90;;;3.60;1.00;;;;;;4993551;28;20491;-84
2023/03/09 06:38:08;;;;;;;1999.90;999.90;;;2.10;1.00;;;;;;4988543;28;20057;-84
2023/03/09 06:40:34;;;;;;;1999.90;999.90;;;3.80;1.00;;;;;;4989715;28;20035;-84
2023/03/09 06:43:00;;;;;;;1999.90;999.90;;;;;;;;;;4991074;28;20068;-83
2023/03/09 06:45:26;;;;;;;1999.90;999.90;;;4.10;1.00;;;;;;4993336;28;20137;-83
2023/03/09 06:47:54;;;;;;;1999.90;999.90;;;3.60;1.00;;;;;;4994970;28;20644;-84
2023/03/09 06:50:20;;;;;;;1999.90;999.90;;;3.20;1.00;;;;;;4989634;28;20082;-84
2023/03/09 06:52:45;;;;;;;1999.90;999.90;;;4.30;1.00;;;;;;4989911;28;20084;-83
2023/03/09 06:55:11;;;;;;;1999.90;999.90;;;4.20;1.00;;;;;;4991920;28;20043;-83
2023/03/09 06:57:37;;;;;;;1999.90;999.90;;;3.20;1.00;;;;;;4990552;28;20460;-83
2023/03/09 07:00:04;;;;;;;1999.90;999.90;;;4.60;1.00;;;;;;4976400;28;20411;-83
2023/03/09 07:02:31;;;;;;;1999.90;999.90;;;3.30;1.00;;;;;;4988996;28;21213;-83
2023/03/09 07:04:57;;;;;;;1999.90;999.90;;;;;;;;;;4988461;28;20054;-83
2023/03/09 07:07:23;;;;;;;1999.90;999.90;;;4.50;1.00;;;;;;4989558;28;20399;-83
2023/03/09 07:09:49;;;;;;;1999.90;999.90;;;4.70;1.00;;;;;;4991124;28;20056;-83
2023/03/09 07:12:14;;;;;;;1999.90;999.90;;;4.90;1.00;;;;;;4990708;28;20046;-83
2023/03/09 07:14:40;;;;;;;1999.90;999.90;;;5.10;1.00;;;;;;4987952;28;20046;-83
2023/03/09 07:17:06;;;;;;;1999.90;999.90;;;;;;;;;;4990194;28;20054;-83
2023/03/09 07:19:32;;;;;;;1999.90;999.90;;;3.80;1.00;;;;;;4990991;28;20050;-83
2023/03/09 07:21:58;;;;;;;1999.90;999.90;;;4.70;1.00;;;;;;4991115;28;20038;-83
2023/03/09 07:24:23;;;;;;;1999.90;999.90;;;7.40;1.00;;;;;;4988518;28;20518;-83
2023/03/09 07:26:49;;;;;;;1999.90;999.90;;;3.80;1.00;;;;;;4990609;28;20725;-83
2023/03/09 07:29:15;;;;;;;1999.90;999.90;;;3.40;1.00;;;;;;4988446;28;20086;-83
2023/03/09 07:31:41;;;;;;;1999.90;999.90;;;4.30;1.00;;;;;;4987839;28;20049;-83
2023/03/09 07:34:07;;;;;;;1999.90;999.90;;;3.70;1.00;;;;;;4990801;28;20038;-84
2023/03/09 07:36:32;;;;;;;1668.18;768.55;;;3.90;1.00;;;;;;4990188;28;20046;-83
2023/03/09 07:38:58;;;;;;;1999.90;999.90;;;5.50;1.00;;;;;;4988720;28;20156;-83
2023/03/09 07:41:24;;;;;;;1999.90;999.90;;;5.10;1.00;;;;;;4988136;28;20054;-83
2023/03/09 07:43:49;;;;;;;1999.90;999.90;;;4.60;1.00;;;;;;4991648;28;20046;-83
2023/03/09 07:46:17;;;;;;;1999.90;999.90;;;4.80;1.00;;;;;;4951526;28;20085;-83
2023/03/09 07:48:44;;;;;;;1999.90;999.90;;;4.70;99.90;;;;;;4980699;28;20093;-84
2023/03/09 07:51:11;;;;;;;1999.90;999.90;;;5.60;99.90;;;;;;4981697;28;20487;-84
2023/03/09 07:53:39;;;;;;;1999.90;999.90;;;4.90;1.00;;;;;;4989168;28;20058;-84
2023/03/09 07:56:06;;;;;;;1999.90;999.90;;;4.00;1.00;;;;;;4992486;28;20054;-83
2023/03/09 07:58:33;;;;;;;1999.90;999.90;;;3.90;99.90;;;;;;4993070;28;20046;-84
2023/03/09 08:00:59;;;;;;;1999.90;999.90;;;4.90;1.00;;;;;;4992867;28;21012;-84
2023/03/09 08:03:25;;;;;;;1999.90;999.90;;;4.30;1.00;;;;;;4974900;28;20507;-83
2023/03/09 08:05:55;;;;;;;1999.90;999.90;;;4.40;99.90;;;;;;4991620;28;20043;-83
2023/03/09 08:08:22;;;;;;;1999.90;999.90;;;5.00;99.90;;;;;;4976795;28;20090;-83
2023/03/09 08:10:52;;;;;;;1999.90;999.90;;;4.40;99.90;;;;;;4992548;28;20050;-83
2023/03/09 08:13:18;;;;;;;1999.90;999.90;;;5.20;99.90;;;;;;4992870;28;20404;-83
2023/03/09 08:15:44;;;;;;;1999.90;999.90;;;4.30;99.90;;;;;;4992348;28;20495;-84
2023/03/09 08:18:10;;;;;;;1999.90;999.90;;;5.40;99.90;;;;;;4993300;28;20069;-83
2023/03/09 08:20:36;;;;;;;1999.90;999.90;;;5.30;99.90;;;;;;4993340;28;20073;-83
2023/03/09 08:23:02;;;;;;;1999.90;999.90;;;5.30;99.90;;;;;;4994426;28;20042;-83
2023/03/09 08:25:29;;;;;;;1999.90;999.90;;;7.30;99.90;;;;;;4992834;28;20050;-83
2023/03/09 08:27:55;;;;;;;1999.90;999.90;;;6.00;99.90;;;;;;4994018;28;20050;-84
2023/03/09 08:30:21;;;;;;;1999.90;999.90;;;5.00;99.90;;;;;;4994282;28;20038;-82
2023/03/09 08:32:48;;;;;;;1999.90;999.90;;;4.50;99.90;;;;;;4993610;28;20053;-83
2023/03/09 08:35:16;;;;;;;1999.90;999.90;;;5.10;99.90;;;;;;4990938;28;20078;-83
2023/03/09 08:37:41;;;;;;;1999.90;857.28;;;5.10;99.90;;;;;;4994031;28;20046;-83
2023/03/09 08:40:09;;;;;;;1999.90;999.90;;;5.10;99.90;;;;;;4993030;28;20050;-83
2023/03/09 08:42:34;;;;;;;1999.90;999.90;;;5.10;99.90;;;;;;4994148;28;20467;-83
2023/03/09 08:45:01;;;;;;;1999.90;999.90;;;4.50;1.00;;;;;;4992179;28;20094;-83
2023/03/09 08:47:27;;;;;;;1999.90;999.90;;;4.30;99.90;;;;;;4994026;28;20096;-83
2023/03/09 08:49:53;;;;;;;1999.90;999.90;;;5.10;99.90;;;;;;4992168;28;20430;-83
2023/03/09 08:52:18;;;;;;;1999.90;999.90;;;6.60;99.90;;;;;;4976874;28;20046;-83
2023/03/09 08:54:45;;;;;;;1999.90;999.90;;;;;;;;;;4993639;28;20053;-83
2023/03/09 08:57:11;;;;;;;1999.90;999.90;;;5.20;99.90;;;;;;4992713;28;20046;-83
2023/03/09 08:59:37;;;;;;;1999.90;999.90;;;6.60;99.90;;;;;;4993676;28;20070;-83
2023/03/09 09:02:03;;;;;;;1803.10;801.17;;;5.20;1.00;;;;;;4993161;28;20506;-83
2023/03/09 09:04:28;;;;;;;1999.90;999.90;;;5.20;99.90;;;;;;4994285;28;20070;-83
2023/03/09 09:06:54;;;;;;;1999.90;999.90;;;5.80;99.90;;;;;;4992268;28;20073;-83
2023/03/09 09:09:20;;;;;;;1999.90;999.90;;;5.40;99.90;;;;;;4992945;28;20054;-83
2023/03/09 09:11:46;;;;;;;1999.90;999.90;;;6.10;99.90;;;;;;4992559;28;20088;-83
2023/03/09 09:14:12;;;;;;;1999.90;999.90;;;5.60;99.90;;;;;;4993247;28;20061;-83
2023/03/09 09:16:38;;;;;;;1999.90;999.90;;;5.40;99.90;;;;;;4991899;28;20475;-83
2023/03/09 09:19:03;;;;;;;1999.90;999.90;;;7.70;99.90;;;;;;4991873;28;20054;-83
2023/03/09 09:21:30;;;;;;;1999.90;999.90;;;6.00;99.90;;;;;;4992558;28;20049;-83
2023/03/09 09:23:57;;;;;;;1999.90;999.90;;;;;;;;;;4975039;28;20058;-83
2023/03/09 09:26:22;;;;;;;1999.90;999.90;;;5.50;99.90;;;;;;4991494;28;20052;-83
2023/03/09 09:28:48;;;;;;;1927.18;683.22;;;5.40;99.90;;;;;;4975244;28;20046;-83
2023/03/09 09:31:23;;;;;;;1999.90;999.90;;;6.60;99.90;;;;;;4994058;28;20050;-83
2023/03/09 09:33:48;;;;;;;1999.90;999.90;;;6.30;99.90;;;;;;4989134;28;20046;-83
2023/03/09 09:36:16;;;;;;;1999.90;727.40;;;5.50;99.90;;;;;;4975407;28;20054;-83
2023/03/09 09:38:42;;;;;;;1958.00;829.33;;;5.70;99.90;;;;;;4992190;28;20054;-83
2023/03/09 09:41:38;;;;;;;1999.90;999.90;;;6.00;99.90;;;;;;4976560;28;20438;-83
2023/03/09 09:44:10;;;;;;;1999.90;999.90;;;4.80;99.90;;;;;;4993338;28;20061;-83
2023/03/09 09:46:36;;;;;;;1999.90;999.90;;;4.00;99.90;;;;;;4992748;28;20050;-83
2023/03/09 09:49:03;;;;;;;1999.90;999.90;;;6.20;99.90;;;;;;4991490;28;20383;-83
2023/03/09 09:51:44;;;;;;;1999.40;730.35;;;6.10;99.90;;;;;;4993420;28;20125;-83
2023/03/09 09:54:39;;;;;;;1999.90;999.90;;;6.50;99.90;;;;;;4992110;28;20085;-83
2023/03/09 09:57:14;;;;;;;1999.90;999.90;;;7.10;99.90;;;;;;4991808;28;20047;-83
2023/03/09 09:59:47;;;;;;;1999.90;999.90;;;9.00;99.90;;;;;;4992055;28;20046;-83
2023/03/09 10:02:19;;;;;;;1999.90;999.90;;;9.00;99.90;;;;;;4991771;28;20120;-83
2023/03/09 10:04:55;;;;;;;1999.90;999.90;;;7.60;99.90;;;;;;4975876;28;20046;-83
2023/03/09 10:07:23;;;;;;;1999.90;705.05;;;7.60;99.90;;;;;;4992208;28;20042;-83
2023/03/09 10:09:51;;;;;;;;;;;7.80;99.90;;;;;;4990889;28;20046;-83
2023/03/09 10:12:17;;;;;;;1999.90;999.90;;;7.60;99.90;;;;;;4991011;28;20282;-83
2023/03/09 10:14:52;;;;;;;1999.90;999.90;;;7.60;99.90;;;;;;4993173;28;20050;-83
2023/03/09 10:17:34;;;;;;;1999.90;999.90;;;7.10;99.90;;;;;;4991811;28;20047;-83
2023/03/09 10:20:13;;;;;;;1999.90;999.90;;;7.50;99.90;;;;;;4973583;28;20054;-85
2023/03/09 10:22:39;;;;;;;1999.90;999.90;;;6.50;99.90;;;;;;4974437;28;20041;-84
2023/03/09 10:25:11;;;;;;;1999.90;999.90;;;9.90;99.90;;;;;;4973471;28;20404;-83
2023/03/09 10:27:42;;;;;;;1999.90;999.90;;;7.70;99.90;;;;;;4990849;28;20053;-84
2023/03/09 10:30:35;;;;;;;1999.90;973.92;;;6.80;99.90;;;;;;4991388;28;20042;-84
2023/03/09 10:33:18;;;;;;;1999.90;873.08;;;7.60;99.90;;;;;;4990653;28;20046;-84
2023/03/09 10:36:06;;;;;;;1999.90;999.90;;;7.20;99.90;;;;;;4988649;28;20047;-84
2023/03/09 10:38:34;;;;;;;1999.90;999.90;;;7.30;99.90;;;;;;4976950;28;20413;-84
2023/03/09 10:41:00;;;;;;;1999.90;999.90;;;7.50;99.90;;;;;;4995107;28;20126;-84
2023/03/09 10:43:34;;;;;;;1999.90;999.90;;;7.40;99.90;;;;;;4995036;28;20082;-83
2023/03/09 10:46:23;;;;;;;1999.90;999.90;;;7.80;99.90;;;;;;4994701;28;20058;-84
2023/03/09 10:49:07;;;;;;;1999.90;423.25;;;7.40;99.90;;;;;;4977721;28;20039;-84
2023/03/09 10:51:38;;;;;;;1999.90;999.90;;;7.40;99.90;;;;;;4995907;28;20621;-84
2023/03/09 10:54:17;;;;;;;1999.90;999.90;;;7.70;99.90;;;;;;4995769;28;20050;-84
2023/03/09 10:56:44;;;;;;;1999.90;999.90;;;7.60;99.90;;;;;;4979705;28;20058;-83
2023/03/09 10:59:20;;;;;;;1999.90;972.05;;;7.40;99.90;;;;;;4993413;28;20446;-83
2023/03/09 11:01:48;;;;;;;1999.90;999.90;;;7.60;99.90;;;;;;4996754;28;20069;-83
2023/03/09 11:04:23;;;;;;;1999.90;999.90;;;7.80;99.90;;;;;;4996332;28;20057;-84
2023/03/09 11:07:19;;;;;;;1999.90;999.90;;;7.80;99.90;;;;;;4997192;28;20058;-83
2023/03/09 11:09:52;;;;;;;1999.90;999.90;;;7.90;99.90;;;;;;4990801;28;20061;-84
2023/03/09 11:12:24;;;;;;;1999.90;924.55;;;8.00;99.90;;;;;;4996225;28;20045;-84
2023/03/09 11:14:51;;;;;;;1999.90;999.90;;;10.60;99.90;;;;;;4996285;28;20061;-83
2023/03/09 11:17:38;;;;;;;1999.90;999.90;;;8.40;99.90;;;;;;4996134;28;20455;-84
2023/03/09 11:20:34;;;;;;;1999.90;999.90;;;7.40;99.90;;;;;;4996417;28;20042;-84
2023/03/09 11:23:18;;;;;;;1999.90;999.90;;;7.70;99.90;;;;;;4993559;28;20062;-83
2023/03/09 11:26:15;;;;;;;1999.90;999.90;;;8.40;99.90;;;;;;4993710;28;20453;-83
2023/03/09 11:28:50;;;;;;;1999.90;999.90;;;9.20;99.90;;;;;;4994573;28;20074;-84
2023/03/09 11:31:19;;;;;;;1999.90;999.90;;;8.30;99.90;;;;;;4994010;28;20053;-83
2023/03/09 11:33:46;;;;;;;1999.90;999.90;;;8.10;99.90;;;;;;4987092;28;20043;-84
2023/03/09 11:36:18;;;;;;;1999.90;999.90;;;8.60;99.90;;;;;;4974250;28;20055;-83
2023/03/09 11:38:45;;;;;;;1999.90;999.90;;;10.10;99.90;;;;;;4974910;28;20058;-83
2023/03/09 11:41:14;;;;;;;1999.90;999.90;;;9.30;99.90;;;;;;4982145;28;20038;-84
2023/03/09 11:43:43;;;;;;;1999.90;999.90;;;8.90;99.90;;;;;;4981377;28;20046;-84
2023/03/09 11:46:14;;;;;;;1999.90;999.90;;;8.00;99.90;;;;;;4993465;28;20054;-84
2023/03/09 11:48:44;;;;;;;1999.90;999.90;;;8.30;99.90;;;;;;4993968;28;20133;-83
2023/03/09 11:51:21;;;;;;;1999.90;999.90;;;8.10;99.90;;;;;;4993402;28;20050;-84
2023/03/09 11:54:04;;;;;;;1999.90;999.90;;;8.70;99.90;;;;;;4992104;28;20055;-84
2023/03/09 11:56:34;;;;;;;1999.90;999.90;;;9.20;99.90;;;;;;4993832;28;20054;-83
2023/03/09 11:59:05;;;;;;;1999.90;999.90;;;7.90;99.90;;;;;;4993788;28;20080;-83
2023/03/09 12:01:45;;;;;;;1999.90;999.90;;;7.50;99.90;;;;;;4994407;28;20488;-82
2023/03/09 12:04:14;;;;;;;1999.90;999.90;;;6.10;99.90;;;;;;4993404;28;20061;-83
2023/03/09 12:07:01;;;;;;;1999.90;999.90;;;7.40;99.90;;;;;;4993899;28;20117;-83
2023/03/09 12:09:49;;;;;;;1999.90;999.90;;;8.10;99.90;;;;;;4993350;28;20376;-83
2023/03/09 12:12:33;;;;;;;1999.90;999.90;;;8.20;99.90;;;;;;4993868;28;20042;-83
2023/03/09 12:15:10;;;;;;;1999.90;999.90;;;7.40;99.90;;;;;;4992868;28;20050;-83
2023/03/09 12:17:45;;;;;;;1999.90;999.90;;;7.80;99.90;;;;;;4993600;28;20046;-83
2023/03/09 12:20:21;;;;;;;1999.90;999.90;;;7.30;99.90;;;;;;4977011;28;20483;-84
2023/03/09 12:22:47;;;;;;;1999.90;999.90;;;7.40;99.90;;;;;;4993297;28;20042;-83
2023/03/09 12:25:22;;;;;;;1999.90;999.90;;;6.40;99.90;;;;;;4991054;28;20054;-84
2023/03/09 12:28:00;;;;;;;1999.90;952.58;;;7.50;99.90;;;;;;4993512;28;20050;-83